Relevés horaires Schaffen (Belgique)


Relevés horaires à Schaffen - Mardi 06 Nov. 2018
Heure UTC1 Température [°C] Vent [km/h] Hum. [%] Pres.4 [hPa] Visi. [Km] Nébu. [octa] Préc.5 [mm] Cond.
2m. Res. Ros. Dir.2 Vit. Moy. Raf.3
23:00 13.0 12.6 7.1 S 7.4 -- 16.7 67 1006.7(0.4/3h) 20 -- -- --
22:00 13.6 13.3 7.7 S 7.4 -- 13.0 67 1006.5(0.5/3h) 20 -- -- --
21:00 13.8 13.8 8.7 S 5.6 -- 11.1 71 1006.2(0.3/3h) 20 -- -- --
20:00 13.3 13.3 9.0 S 5.6 -- 9.3 75 1006.2(0.7/3h) 20 6/8 -- --
19:00 12.7 12.7 9.0 SSE 3.7 -- 5.6 78 1005.8(0.7/3h) 20 6/8 -- --
18:00 13.6 13.6 8.9 S 3.7 -- 9.3 73 1006(1.2/3h) 20 5/8 -- --
17:00 15.1 15.1 8.7 S 5.6 -- 7.4 66 1005.5(0.8/3h) 20 5/8 -- --
16:00 16.4 16.4 8.1 SSE 3.7 -- 7.4 58 1005(0.2/3h) 20 6/8 -- --
15:00 18.3 18.3 7.9 SSE 3.7 -- 9.3 51 1004.7(-0.5/3h) 20 6/8 -- --
14:00 19.2 19.2 8.2 SSE 3.7 -- 9.3 49 1004.6(-1.1/3h) 20 6/8 -- --
13:00 18.6 18.6 9.2 SE 3.7 -- 9.3 54 1004.7(-1.3/3h) 20 6/8 -- --
12:00 17.1 17.1 8.7 SSE 5.6 -- 11.1 58 1005.2(-0.8/3h) 20 6/8 -- --
11:00 17.1 17.1 8.5 SSE 7.4 -- 11.1 57 1005.7(-0.5/3h) 20 6/8 -- --
10:00 15.6 15.6 8.6 SE 5.6 -- 11.1 63 1006.2(0.0/3h) 20 6/8 -- --
09:00 13.3 13.3 8.0 SE 5.6 5.6 7.4 70 1006.2(0.2/3h) 20 5/8 -- --
08:00 10.8 10.5 7.8 SE 5.6 -- 7.4 82 1006.5(0.6/3h) 15 6/8 -- --
07:00 10.0 10.0 7.6 SSE 3.7 -- 5.6 85 1006.2(0.6/3h) 15 6/8 -- --
06:00 9.3 9.3 7.5 SSE 3.7 -- 7.4 88 1006.1(0.4/3h) 12 7/8 -- --
05:00 9.6 9.1 7.7 SSE 5.6 -- 5.6 88 1005.7(0.0/3h) 12 7/8 -- --
04:00 9.4 9.4 7.6 SSE 3.7 -- 7.4 89 1005.7(-0.2/3h) 10 -- -- --
03:00 8.6 8 7.4 SE 5.6 -- 7.4 92 1005.6(-0.9/3h) 7 -- -- --
02:00 8.3 7.6 7.3 SSE 5.6 -- 7.4 93 1005.8(-0.6/3h) 6 -- -- --
01:00 8.3 8.3 7.2 SE 3.7 -- 7.4 93 1006(-0.6/3h) 6 -- -- --
00:00 7.5 6.7 6.8 SSE 5.6 -- 7.4 95 1006.6(0.0/3h) 5 -- -- --

1 Coordinated Universal Time. Actuellement il est 13:00 locale et 12:00 UTC.

2 Le vent souffle depuis la direction indiquée vers la direction oposée.

3 Les rafales max. sont disponible 40 min après l'heure du relevé.

4 Pour les stations d'altitude (plus de 600m) le géopotentiel du niveau le plus proche de la pression obligatoire est indiqué.

5 Les stations disposant d'un diffuseur peuvent indiquer "trace". Cela signifie que des précipitations ont touchés le sol mais que la quantité est inférieure à 0.1 mm.

Récapitulatif de la journée
Température [°C] Vent [km/h] Ensoleillement4 [h] Precipitations totale5 [mm] Pression [Hpa]
Min1 Max.2 Moy.3 Max. Min Max.
6.7 19.6 5.6 16.7 0 h 0 min 0 1004.6 1006.7

1 Température minimale relevée entre 18:00 UTC la veille et 18:00 UTC le jour donné.

2 Température maximale relevée entre 06:00 UTC le jour donné et 06:00 UTC le lendemain.

3 Vent moyen de la journée basé sur les relevés horaires.

4 Ensoleillement en heures relevé entre 06:00 UTC la veille et 06:00 UTC le jour donné.

5 Précipitations totales tombées entre 06:00 UTC la jour donné et 06:00 UTC le lendemain.

Graphiques horaires